Portada
METAR-TAF:

METAR-TAF

Aeroports :

Aeroport de Luxemburg

Luxemburg, Luxemburg

latitud: 49-37N, longitud: 006-13E, altitud: 376 m

Observació

L'informe es va fer fa 24 minuts, a les 19:50 UTC
Vent 5 kt del Nord-Est
Temperatura 18°C
Humitat 49%
Pressió 1016 hPa
Visibilitat 10 km o més
sense núvols per sota de 1500 mi sense presència de cumulonimbus.

METAR: ELLX 151950Z 04005KT CAVOK 18/07 Q1016 NOSIG

Hora: 22:14 (20:14 UTC)

Pronòstic

L'informe es va fer fa 3 hores i 14 minuts, a les 17:00 UTC
Pronòstic vàlid del 15 a les 18 UTC al 16 a les 24 UTC
Vent 6 kt del Est/Nord-Est
Visibilitat 10 km o més
sense núvols per sota de 1500 mi sense presència de cumulonimbus.

TAF: ELLX 151700Z 1518/1624 06006KT CAVOK

Observacions i pronòstics meteorològics de més de 4000 aeroports (METAR i TAF).

Les estacions disponibles són els punts grocs i vermells al mapa.

Posi el ratolí al punt desitjat per veure el nom de l'estació.

Feu clic per veure les observacions i els pronòstics meteorològics.

Per canviar el mapa: feu clic els botons verds amb una creu de color negre per apropar; al botó verd amb un guió per allunyar la imatge; o en les fletxes verdes per a mapes adjacents.


METAR-TAF: